Flight Track Log - Related Links

Times and Time Zones

All times are in EDT time to prevent confusion due to time zone crossing. See the CSZ9902 flight status page for this flight to view local times or setup timezone preferences in your user account.

Time Position Orientation Groundspeed Altitude Reporting Facility
EDT Latitude Longitude Course Direction KTS MPH feet Rate Location/Type
Fri 12:40:00 PM 18.6685 109.7700 43° Northeast  Level Estimated
Fri 12:41:00 PM 18.7416 109.8417 43° Northeast  Level Estimated
Fri 12:42:00 PM 18.8146 109.9135 43° Northeast  Level Estimated
Fri 12:43:00 PM 18.8876 109.9854 43° Northeast  Level Estimated
Fri 12:44:00 PM 18.9606 110.0573 43° Northeast  Level Estimated
Fri 12:45:00 PM 19.0335 110.1292 43° Northeast  Level Estimated
Fri 12:46:00 PM 19.1064 110.2013 43° Northeast  Level Estimated
Fri 12:47:00 PM 19.1793 110.2734 43° Northeast  Level Estimated
Fri 12:48:00 PM 19.2522 110.3456 43° Northeast  Level Estimated
Fri 12:49:00 PM 19.3250 110.4178 43° Northeast  Level Estimated
Fri 12:50:00 PM 19.3978 110.4901 43° Northeast  Level Estimated
Fri 12:51:00 PM 19.4706 110.5624 43° Northeast  Level Estimated
Fri 12:52:00 PM 19.5433 110.6349 43° Northeast  Level Estimated
Fri 12:53:00 PM 19.6160 110.7074 43° Northeast  Level Estimated
Fri 12:54:00 PM 19.6887 110.7799 43° Northeast  Level Estimated
Fri 12:55:00 PM 19.7613 110.8525 43° Northeast  Level Estimated
Fri 12:56:00 PM 19.8340 110.9252 43° Northeast  Level Estimated
Fri 12:57:00 PM 19.9065 110.9980 43° Northeast  Level Estimated
Fri 12:58:00 PM 19.9791 111.0708 43° Northeast  Level Estimated
Fri 12:59:00 PM 20.0516 111.1437 43° Northeast  Level Estimated
Fri 01:00:00 PM 20.1242 111.2166 43° Northeast  Level Estimated
Fri 01:01:00 PM 20.1966 111.2897 43° Northeast  Level Estimated
Fri 01:02:00 PM 20.2691 111.3628 43° Northeast  Level Estimated
Fri 01:03:00 PM 20.3415 111.4359 43° Northeast  Level Estimated
Fri 01:04:00 PM 20.4139 111.5091 43° Northeast  Level Estimated
Fri 01:05:00 PM 20.4862 111.5824 43° Northeast  Level Estimated
Fri 01:06:00 PM 20.5585 111.6558 44° Northeast  Level Estimated
Fri 01:07:00 PM 20.6308 111.7292 44° Northeast  Level Estimated
Fri 01:08:00 PM 20.7031 111.8027 44° Northeast  Level Estimated
Fri 01:09:00 PM 20.7753 111.8763 44° Northeast  Level Estimated
Fri 01:10:00 PM 20.8475 111.9500 44° Northeast  Level Estimated
Fri 01:11:00 PM 20.9197 112.0237 44° Northeast  Level Estimated
Fri 01:12:00 PM 20.9918 112.0975 44° Northeast  Level Estimated
Fri 01:13:00 PM 21.0639 112.1713 44° Northeast  Level Estimated
Fri 01:14:00 PM 21.1360 112.2453 44° Northeast  Level Estimated
Fri 01:15:00 PM 21.2080 112.3193 44° Northeast  Level Estimated
Fri 01:16:00 PM 21.2801 112.3933 44° Northeast  Level Estimated
Fri 01:17:00 PM 21.3520 112.4675 44° Northeast  Level Estimated
Fri 01:18:00 PM 21.4240 112.5417 44° Northeast  Level Estimated
Fri 01:19:00 PM 21.4959 112.6160 44° Northeast  Level Estimated
Fri 01:20:00 PM 21.5678 112.6904 44° Northeast  Level Estimated
Fri 01:21:00 PM 21.6396 112.7648 44° Northeast  Level Estimated
Fri 01:22:00 PM 21.7114 112.8393 44° Northeast  Level Estimated
Fri 01:23:00 PM 21.7832 112.9139 44° Northeast  Level Estimated
Fri 01:24:00 PM 21.8549 112.9886 44° Northeast  Level Estimated
Fri 01:25:00 PM 21.9266 113.0633 44° Northeast  Level Estimated
Fri 01:26:00 PM 21.9983 113.1381 44° Northeast  Level Estimated
Fri 01:27:00 PM 22.0700 113.2130 44° Northeast  Level Estimated
Fri 01:28:00 PM 22.1416 113.2880 44° Northeast  Level Estimated
Fri 01:29:00 PM 22.2131 113.3630 44° Northeast  Level Estimated
Fri 01:30:00 PM 22.2847 113.4382 44° Northeast  Level Estimated
Fri 01:31:00 PM 22.3562 113.5134 44° Northeast  Level Estimated
Fri 01:32:00 PM 22.4276 113.5886 44° Northeast  Level Estimated
Fri 01:33:00 PM 22.4991 113.6640 44° Northeast  Level Estimated
Fri 01:34:00 PM 22.5705 113.7394 44° Northeast  Level Estimated
Fri 01:35:00 PM 22.6395 113.8124 44° Northeast  Level Estimated
Fri 01:36:00 PM 22.6395 113.8124 North  Level Estimated
Fri 01:37:00 PM 22.6395 113.8124 North  Level Estimated
Fri 01:38:00 PM 22.6395 113.8124 North  Level Estimated
Fri 01:39:00 PM 22.6395 113.8124 North  Level Estimated
Fri 01:40:00 PM 22.6395 113.8124 North  Level Estimated
Fri 01:41:00 PM 22.6395 113.8124 North  Level Estimated
Fri 01:42:00 PM 22.6395 113.8124 North  Level Estimated
Fri 01:43:00 PM 22.6395 113.8124 North  Level Estimated
Fri 01:44:00 PM 22.6395 113.8124 North  Level Estimated
Fri 01:45:00 PM 22.6395 113.8124 North  Level Estimated
Fri 01:46:00 PM 22.6395 113.8124 North  Level Estimated
Fri 01:47:00 PM 22.6395 113.8124 North  Level Estimated
Fri 01:48:00 PM 22.6395 113.8124 North  Level Estimated
Fri 01:49:00 PM 22.6395 113.8124 North  Level Estimated
Fri 01:50:00 PM 22.6395 113.8124 North  Level Estimated
Fri 01:51:00 PM 22.6395 113.8124 North  Level Estimated

Login

Don't have an account? Register now (free) for customized features, flight alerts, and more!